createdAt,value
2022-09-11T00:01:24.008Z,21.70
2022-09-11T00:03:54.781Z,20.97
2022-09-11T00:06:29.867Z,19.70
2022-09-11T00:09:01.469Z,18.30
2022-09-11T00:11:31.014Z,21.17
2022-09-11T00:13:59.557Z,25.73
2022-09-11T00:16:29.936Z,24.77
2022-09-11T00:18:59.960Z,23.60
2022-09-11T00:21:29.342Z,23.07
2022-09-11T00:23:58.145Z,23.43
2022-09-11T00:26:28.409Z,27.17
2022-09-11T00:28:57.319Z,29.33
2022-09-11T00:31:27.993Z,27.07
2022-09-11T00:33:57.149Z,26.33
2022-09-11T00:36:26.789Z,27.00
2022-09-11T00:38:56.007Z,26.27
2022-09-11T00:41:25.752Z,26.70
2022-09-11T00:43:57.312Z,26.37
2022-09-11T00:46:27.865Z,27.03
2022-09-11T00:48:58.378Z,27.57
2022-09-11T00:51:28.203Z,26.67
2022-09-11T00:53:58.522Z,24.77
2022-09-11T00:56:28.507Z,24.67
2022-09-11T00:58:58.994Z,25.17
2022-09-11T01:01:27.710Z,24.83
2022-09-11T01:03:56.959Z,26.10
2022-09-11T01:06:26.097Z,26.73
2022-09-11T01:08:54.658Z,25.50
2022-09-11T01:11:28.490Z,23.97
2022-09-11T01:14:03.267Z,24.57
2022-09-11T01:16:35.423Z,23.40
2022-09-11T01:19:08.634Z,25.40
2022-09-11T01:21:45.028Z,22.60
2022-09-11T01:24:20.916Z,23.37
2022-09-11T01:26:55.899Z,23.30
2022-09-11T01:29:29.382Z,22.63
2022-09-11T01:31:59.720Z,23.23
2022-09-11T01:34:31.848Z,23.70
2022-09-11T01:37:03.212Z,23.40
2022-09-11T01:39:34.438Z,26.03
2022-09-11T01:42:05.506Z,24.60
2022-09-11T01:44:37.288Z,25.33
2022-09-11T01:47:06.749Z,20.77
2022-09-11T01:49:36.986Z,25.37
2022-09-11T01:52:09.137Z,26.47
2022-09-11T01:54:42.696Z,28.13
2022-09-11T01:57:14.588Z,27.97
2022-09-11T01:59:46.995Z,29.00
2022-09-11T02:02:18.732Z,25.47
2022-09-11T02:04:48.113Z,27.00
2022-09-11T02:07:17.952Z,26.87
2022-09-11T02:09:48.193Z,24.70
2022-09-11T02:12:19.009Z,26.40
2022-09-11T02:14:50.344Z,26.00
2022-09-11T02:17:24.494Z,22.73
2022-09-11T02:19:54.254Z,23.20
2022-09-11T02:22:23.244Z,24.37
2022-09-11T02:24:51.864Z,26.37
2022-09-11T02:27:22.836Z,22.37
2022-09-11T02:29:53.770Z,24.57
2022-09-11T02:32:22.441Z,25.40
2022-09-11T02:34:51.378Z,23.60
2022-09-11T02:37:27.885Z,21.57
2022-09-11T02:40:02.400Z,24.50
2022-09-11T02:42:44.164Z,29.17
2022-09-11T02:45:18.728Z,27.67
2022-09-11T02:47:53.917Z,25.73
2022-09-11T02:50:25.992Z,27.83
2022-09-11T02:52:59.038Z,27.43
2022-09-11T02:55:31.963Z,28.40
2022-09-11T02:58:03.736Z,30.37
2022-09-11T03:00:35.169Z,30.23
2022-09-11T03:03:04.297Z,28.50
2022-09-11T03:05:32.823Z,34.97
2022-09-11T03:08:04.249Z,27.43
2022-09-11T03:10:32.841Z,26.50
2022-09-11T03:13:01.442Z,26.63
2022-09-11T03:15:29.989Z,27.73
2022-09-11T03:17:59.880Z,28.50
2022-09-11T03:20:28.464Z,25.00
2022-09-11T03:22:57.024Z,21.87
2022-09-11T03:25:28.132Z,22.50
2022-09-11T03:27:56.752Z,33.23
2022-09-11T03:30:25.299Z,26.27
2022-09-11T03:32:54.145Z,25.70
2022-09-11T03:35:25.032Z,31.77
2022-09-11T03:37:55.464Z,31.17
2022-09-11T03:40:24.019Z,25.70
2022-09-11T03:42:52.952Z,28.70
2022-09-11T03:45:22.202Z,29.90
2022-09-11T03:47:50.773Z,33.40
2022-09-11T03:50:19.381Z,28.97
2022-09-11T03:52:49.281Z,29.13
2022-09-11T03:55:18.385Z,34.40
2022-09-11T03:57:46.949Z,34.70
2022-09-11T04:00:15.585Z,33.17
2022-09-11T04:02:44.266Z,33.10
2022-09-11T04:05:12.798Z,33.43
2022-09-11T04:07:41.447Z,27.37
2022-09-11T04:10:11.628Z,31.23
2022-09-11T04:12:40.151Z,31.93
2022-09-11T04:15:09.117Z,32.33
2022-09-11T04:17:38.020Z,36.53
2022-09-11T04:20:07.025Z,31.93
2022-09-11T04:22:35.590Z,31.00
2022-09-11T04:25:04.138Z,25.07
2022-09-11T04:27:34.179Z,30.03
2022-09-11T04:30:02.723Z,30.03
2022-09-11T04:32:31.282Z,30.43
2022-09-11T04:35:01.632Z,41.17
2022-09-11T04:37:30.520Z,33.27
2022-09-11T04:40:00.242Z,28.77
2022-09-11T04:42:29.151Z,33.80
2022-09-11T04:44:59.034Z,30.53
2022-09-11T04:47:27.554Z,27.83
2022-09-11T04:49:57.348Z,30.70
2022-09-11T04:52:25.974Z,38.97
2022-09-11T04:54:54.485Z,30.40
2022-09-11T04:57:23.103Z,26.90
2022-09-11T04:59:52.658Z,28.07
2022-09-11T05:02:22.795Z,23.87
2022-09-11T05:04:51.515Z,22.93
2022-09-11T05:07:20.183Z,30.03
2022-09-11T05:09:48.837Z,25.27
2022-09-11T05:12:17.665Z,33.63
2022-09-11T05:14:46.210Z,31.30
2022-09-11T05:17:15.033Z,31.13
2022-09-11T05:19:45.071Z,34.27
2022-09-11T05:22:13.964Z,36.60
2022-09-11T05:24:42.505Z,36.73
2022-09-11T05:27:11.579Z,34.23
2022-09-11T05:29:40.123Z,27.43
2022-09-11T05:32:08.642Z,31.07
2022-09-11T05:34:37.265Z,30.97
2022-09-11T05:37:07.501Z,28.70
2022-09-11T05:39:36.135Z,23.07
2022-09-11T05:42:04.982Z,21.23
2022-09-11T05:44:33.509Z,21.70
2022-09-11T05:47:02.045Z,20.77
2022-09-11T05:49:30.585Z,18.43
2022-09-11T05:51:59.125Z,16.70
2022-09-11T05:54:29.037Z,17.30
2022-09-11T05:56:57.593Z,17.37
2022-09-11T05:59:27.046Z,16.13
2022-09-11T06:01:56.585Z,17.73
2022-09-11T06:04:25.166Z,17.33
2022-09-11T06:06:53.705Z,18.50
2022-09-11T06:09:22.232Z,20.43
2022-09-11T06:11:53.240Z,18.50
2022-09-11T06:14:21.956Z,19.00
2022-09-11T06:16:50.580Z,24.80
2022-09-11T06:19:19.205Z,25.93
2022-09-11T06:21:47.712Z,27.37
2022-09-11T06:24:16.243Z,23.87
2022-09-11T06:26:46.425Z,19.43
2022-09-11T06:29:16.287Z,18.73
2022-09-11T06:31:45.892Z,23.00
2022-09-11T06:34:14.428Z,19.37
2022-09-11T06:36:44.225Z,17.17
2022-09-11T06:39:14.414Z,21.80
2022-09-11T06:41:43.025Z,23.67
2022-09-11T06:44:11.583Z,23.77
2022-09-11T06:46:41.469Z,26.17
2022-09-11T06:49:10.456Z,23.57
2022-09-11T06:51:39.937Z,23.30
2022-09-11T06:54:08.509Z,18.90
2022-09-11T06:56:37.067Z,17.87
2022-09-11T06:59:05.648Z,19.83
2022-09-11T07:01:34.338Z,18.50
2022-09-11T07:04:04.809Z,17.03
2022-09-11T07:06:35.056Z,17.80
2022-09-11T07:09:03.720Z,18.63
2022-09-11T07:11:33.231Z,19.63
2022-09-11T07:14:05.605Z,20.50
2022-09-11T07:16:34.866Z,18.33
2022-09-11T07:19:05.085Z,15.90
2022-09-11T07:21:35.462Z,18.33
2022-09-11T07:24:04.954Z,19.33
2022-09-11T07:26:33.520Z,21.67
2022-09-11T07:29:02.063Z,19.57
2022-09-11T07:31:32.709Z,18.37
2022-09-11T07:34:02.048Z,15.80
2022-09-11T07:36:33.008Z,17.00
2022-09-11T07:39:01.952Z,17.57
2022-09-11T07:41:31.539Z,20.73
2022-09-11T07:44:01.069Z,16.03
2022-09-11T07:46:31.222Z,17.00
2022-09-11T07:48:59.973Z,19.17
2022-09-11T07:51:28.593Z,17.80
2022-09-11T07:53:59.964Z,15.53
2022-09-11T07:56:29.093Z,17.53
2022-09-11T07:58:57.780Z,16.67
2022-09-11T08:01:27.589Z,18.10
2022-09-11T08:03:58.248Z,17.30
2022-09-11T08:06:27.873Z,16.50
2022-09-11T08:08:57.217Z,15.83
2022-09-11T08:11:27.554Z,16.57
2022-09-11T08:13:56.990Z,14.90
2022-09-11T08:16:26.709Z,15.00
2022-09-11T08:18:55.556Z,15.73
2022-09-11T08:21:26.120Z,15.90
2022-09-11T08:23:54.776Z,14.83
2022-09-11T08:26:24.176Z,16.23
2022-09-11T08:28:54.689Z,15.57
2022-09-11T08:31:25.659Z,14.90
2022-09-11T08:33:54.326Z,13.53
2022-09-11T08:36:22.985Z,14.43
2022-09-11T08:38:52.564Z,14.77
2022-09-11T08:41:27.668Z,13.97
2022-09-11T08:43:58.598Z,15.10
2022-09-11T08:46:28.615Z,14.83
2022-09-11T08:49:00.581Z,13.33
2022-09-11T08:51:29.145Z,12.27
2022-09-11T08:53:57.899Z,12.17
2022-09-11T08:56:29.186Z,11.53
2022-09-11T08:59:10.639Z,11.93
2022-09-11T09:01:46.953Z,10.70
2022-09-11T09:04:23.588Z,10.40
2022-09-11T09:06:58.948Z,11.73
2022-09-11T09:09:35.319Z,10.77
2022-09-11T09:12:06.949Z,9.77
2022-09-11T09:14:59.506Z,13.07
2022-09-11T09:17:31.388Z,11.57
2022-09-11T09:20:02.739Z,11.23
2022-09-11T09:22:37.434Z,10.17
2022-09-11T09:25:08.424Z,10.63
2022-09-11T09:27:38.504Z,8.60
2022-09-11T09:30:08.286Z,9.03
2022-09-11T09:32:41.740Z,6.90
2022-09-11T09:35:15.326Z,4.50
2022-09-11T09:37:45.666Z,4.80
2022-09-11T09:40:17.304Z,5.93
2022-09-11T09:42:54.050Z,7.23
2022-09-11T09:45:32.879Z,7.30
2022-09-11T09:48:02.795Z,7.30
2022-09-11T09:50:33.802Z,6.40
2022-09-11T09:53:05.051Z,5.67
2022-09-11T09:55:35.831Z,9.23
2022-09-11T09:58:04.410Z,9.33
2022-09-11T10:00:33.162Z,8.17
2022-09-11T10:03:18.587Z,9.00
2022-09-11T10:05:47.433Z,8.27
2022-09-11T10:08:27.071Z,6.87
2022-09-11T10:10:56.833Z,6.37
2022-09-11T10:13:27.556Z,4.80
2022-09-11T10:15:59.351Z,4.27
2022-09-11T10:18:45.148Z,4.80
2022-09-11T10:21:22.147Z,5.30
2022-09-11T10:23:52.462Z,5.13
2022-09-11T10:26:22.977Z,5.60
2022-09-11T10:28:51.554Z,6.83
2022-09-11T10:31:20.525Z,8.40
2022-09-11T10:33:52.281Z,6.97
2022-09-11T10:36:24.059Z,7.10
2022-09-11T10:38:52.928Z,8.17
2022-09-11T10:41:23.376Z,6.33
2022-09-11T10:43:55.882Z,5.57
2022-09-11T10:46:29.636Z,5.30
2022-09-11T10:49:00.457Z,4.90
2022-09-11T10:51:30.091Z,4.87
2022-09-11T10:54:01.002Z,4.77
2022-09-11T10:56:29.825Z,4.30
2022-09-11T10:59:00.924Z,4.27
2022-09-11T11:01:29.565Z,3.90
2022-09-11T11:03:59.492Z,4.03
2022-09-11T11:06:36.965Z,4.07
2022-09-11T11:09:16.933Z,3.83
2022-09-11T11:11:51.939Z,3.70
2022-09-11T11:14:37.753Z,3.63
2022-09-11T11:17:09.769Z,3.60
2022-09-11T11:19:47.905Z,3.73
2022-09-11T11:22:23.512Z,3.43
2022-09-11T11:24:58.840Z,4.50
2022-09-11T11:27:36.493Z,3.87
2022-09-11T11:30:10.294Z,4.17
2022-09-11T11:32:48.178Z,4.20
2022-09-11T11:35:26.432Z,4.00
2022-09-11T11:37:57.219Z,3.83
2022-09-11T11:40:28.504Z,3.80
2022-09-11T11:42:59.884Z,3.40
2022-09-11T11:45:31.860Z,3.57
2022-09-11T11:48:01.374Z,3.50
2022-09-11T11:50:36.160Z,4.07
2022-09-11T11:53:08.311Z,3.60
2022-09-11T11:55:41.779Z,3.37
2022-09-11T11:58:14.384Z,3.13
2022-09-11T12:00:46.168Z,3.10
2022-09-11T12:03:16.857Z,3.07
2022-09-11T12:05:46.790Z,3.20
2022-09-11T12:08:16.620Z,3.40
2022-09-11T12:10:47.808Z,3.53
2022-09-11T12:13:18.057Z,4.73
2022-09-11T12:15:59.959Z,3.57
2022-09-11T12:18:29.015Z,4.50
2022-09-11T12:21:12.457Z,4.00
2022-09-11T12:23:55.892Z,4.10
2022-09-11T12:26:25.907Z,3.37
2022-09-11T12:29:24.154Z,3.17
2022-09-11T12:32:20.113Z,2.97
2022-09-11T12:35:00.734Z,2.97
2022-09-11T12:37:33.064Z,3.17
2022-09-11T12:40:05.244Z,2.80
2022-09-11T12:42:58.281Z,2.50
2022-09-11T12:45:35.415Z,2.60
2022-09-11T12:48:08.193Z,2.60
2022-09-11T12:50:37.064Z,2.67
2022-09-11T12:53:07.063Z,3.90
2022-09-11T12:55:39.553Z,2.97
2022-09-11T12:58:24.496Z,3.10
2022-09-11T13:01:02.060Z,3.13
2022-09-11T13:03:31.278Z,2.80
2022-09-11T13:06:01.169Z,5.63
2022-09-11T13:08:31.471Z,5.23
2022-09-11T13:11:15.456Z,4.97
2022-09-11T13:13:46.836Z,4.80
2022-09-11T13:16:24.008Z,5.27
2022-09-11T13:18:53.649Z,5.30
2022-09-11T13:21:26.338Z,5.30
2022-09-11T13:23:56.646Z,4.30
2022-09-11T13:26:27.065Z,4.20
2022-09-11T13:28:58.557Z,4.03
2022-09-11T13:31:31.051Z,4.10
2022-09-11T13:34:00.059Z,4.77
2022-09-11T13:36:29.083Z,3.90
2022-09-11T13:39:00.025Z,3.80
2022-09-11T13:41:30.141Z,3.73
2022-09-11T13:44:01.239Z,3.43
2022-09-11T13:46:31.227Z,3.40
2022-09-11T13:49:01.157Z,3.10
2022-09-11T13:51:31.104Z,3.40
2022-09-11T13:54:09.069Z,3.73
2022-09-11T13:56:47.168Z,3.07
2022-09-11T13:59:49.396Z,3.30
2022-09-11T14:02:25.383Z,3.27
2022-09-11T14:04:54.834Z,3.30
2022-09-11T14:07:24.671Z,3.57
2022-09-11T14:09:59.404Z,3.47
2022-09-11T14:12:28.820Z,3.20
2022-09-11T14:14:59.899Z,3.40
2022-09-11T14:17:30.026Z,3.50
2022-09-11T14:20:01.377Z,3.53
2022-09-11T14:22:31.249Z,3.37
2022-09-11T14:25:05.290Z,3.90
2022-09-11T14:27:38.268Z,3.33
2022-09-11T14:30:27.739Z,3.20
2022-09-11T14:33:14.778Z,3.37
2022-09-11T14:35:45.482Z,3.30
2022-09-11T14:38:14.747Z,3.83
2022-09-11T14:40:47.485Z,3.70
2022-09-11T14:43:18.657Z,3.23
2022-09-11T14:45:47.198Z,3.83
2022-09-11T14:48:15.757Z,3.57
2022-09-11T14:50:45.627Z,3.50
2022-09-11T14:53:17.810Z,3.80
2022-09-11T14:55:46.928Z,3.97
2022-09-11T14:58:16.084Z,3.37
2022-09-11T15:00:45.044Z,3.27
2022-09-11T15:03:13.904Z,3.10
2022-09-11T15:05:44.024Z,3.40
2022-09-11T15:08:14.167Z,3.20
2022-09-11T15:10:45.104Z,3.53
2022-09-11T15:13:14.257Z,3.60
2022-09-11T15:15:42.838Z,3.30
2022-09-11T15:18:11.633Z,3.63
2022-09-11T15:20:40.533Z,4.00
2022-09-11T15:23:09.088Z,3.40
2022-09-11T15:25:39.007Z,3.20
2022-09-11T15:28:09.986Z,3.80
2022-09-11T15:30:38.600Z,3.03
2022-09-11T15:33:07.397Z,3.07
2022-09-11T15:35:36.063Z,3.00
2022-09-11T15:38:05.555Z,2.67
2022-09-11T15:40:34.423Z,2.70
2022-09-11T15:43:04.304Z,3.10
2022-09-11T15:45:32.927Z,2.70
2022-09-11T15:48:02.269Z,2.87
2022-09-11T15:50:30.926Z,3.20
2022-09-11T15:52:59.518Z,2.77
2022-09-11T15:55:30.083Z,2.70
2022-09-11T15:58:00.998Z,2.50
2022-09-11T16:00:30.917Z,2.50
2022-09-11T16:02:59.440Z,2.60
2022-09-11T16:05:28.761Z,2.47
2022-09-11T16:07:57.289Z,2.87
2022-09-11T16:10:25.810Z,2.90
2022-09-11T16:12:58.136Z,2.57
2022-09-11T16:15:27.469Z,2.80
2022-09-11T16:17:57.339Z,2.70
2022-09-11T16:20:25.956Z,2.20
2022-09-11T16:22:55.004Z,2.60
2022-09-11T16:25:23.558Z,2.37
2022-09-11T16:27:53.063Z,3.73
2022-09-11T16:30:42.261Z,2.80
2022-09-11T16:33:12.056Z,3.17
2022-09-11T16:35:40.954Z,3.37
2022-09-11T16:38:09.674Z,3.07
2022-09-11T16:40:38.960Z,2.67
2022-09-11T16:43:07.457Z,3.00
2022-09-11T16:45:38.396Z,2.40
2022-09-11T16:48:07.035Z,2.63
2022-09-11T16:50:36.904Z,2.20
2022-09-11T16:53:05.969Z,2.80
2022-09-11T16:55:34.536Z,3.80
2022-09-11T16:58:03.426Z,3.20
2022-09-11T17:00:32.297Z,2.70
2022-09-11T17:03:00.964Z,3.27
2022-09-11T17:05:29.537Z,3.17
2022-09-11T17:07:59.389Z,2.60
2022-09-11T17:10:28.003Z,3.03
2022-09-11T17:12:56.836Z,2.50
2022-09-11T17:15:26.386Z,2.60
2022-09-11T17:17:54.981Z,2.40
2022-09-11T17:20:23.569Z,2.63
2022-09-11T17:22:56.115Z,2.60
2022-09-11T17:25:27.942Z,1.93
2022-09-11T17:27:56.482Z,2.27
2022-09-11T17:30:25.096Z,2.00
2022-09-11T17:32:53.628Z,2.10
2022-09-11T17:35:22.167Z,1.97
2022-09-11T17:37:50.705Z,2.20
2022-09-11T17:40:19.610Z,1.63
2022-09-11T17:42:49.543Z,2.10
2022-09-11T17:45:18.132Z,1.97
2022-09-11T17:47:46.649Z,2.17
2022-09-11T17:50:15.288Z,1.87
2022-09-11T17:52:43.789Z,1.70
2022-09-11T17:55:13.065Z,1.90
2022-09-11T17:57:44.223Z,1.70
2022-09-11T18:00:14.987Z,2.03
2022-09-11T18:02:44.024Z,2.13
2022-09-11T18:05:12.553Z,1.83
2022-09-11T18:07:41.741Z,1.97
2022-09-11T18:10:10.723Z,1.80
2022-09-11T18:12:39.281Z,2.03
2022-09-11T18:15:08.551Z,1.80
2022-09-11T18:17:39.369Z,2.10
2022-09-11T18:20:09.691Z,1.83
2022-09-11T18:22:39.867Z,1.80
2022-09-11T18:25:09.759Z,2.30
2022-09-11T18:27:39.832Z,2.00
2022-09-11T18:30:09.842Z,3.17
2022-09-11T18:32:40.065Z,2.60
2022-09-11T18:35:10.264Z,2.47
2022-09-11T18:37:38.853Z,2.63
2022-09-11T18:40:07.964Z,2.53
2022-09-11T18:42:36.537Z,2.50
2022-09-11T18:45:05.273Z,2.93
2022-09-11T18:47:34.113Z,2.60
2022-09-11T18:50:04.106Z,2.60
2022-09-11T18:52:33.472Z,2.53
2022-09-11T18:55:03.349Z,2.73
2022-09-11T18:57:36.336Z,3.00
2022-09-11T19:00:07.881Z,2.47
2022-09-11T19:02:36.436Z,2.47
2022-09-11T19:05:06.669Z,2.53
2022-09-11T19:07:35.217Z,2.70
2022-09-11T19:10:03.756Z,2.63
2022-09-11T19:12:32.297Z,2.97
2022-09-11T19:15:00.852Z,2.80
2022-09-11T19:17:29.394Z,2.80
2022-09-11T19:19:58.016Z,2.90
2022-09-11T19:22:27.984Z,2.53
2022-09-11T19:24:57.106Z,2.83
2022-09-11T19:27:26.731Z,2.83
2022-09-11T19:29:55.385Z,2.93
2022-09-11T19:32:24.602Z,3.07
2022-09-11T19:34:53.337Z,2.73
2022-09-11T19:37:21.886Z,2.60
2022-09-11T19:39:52.698Z,2.90
2022-09-11T19:42:21.344Z,2.80
2022-09-11T19:44:53.139Z,3.20
2022-09-11T19:47:26.341Z,3.27
2022-09-11T19:49:55.249Z,3.33
2022-09-11T19:52:24.012Z,3.57
2022-09-11T19:54:53.931Z,3.73
2022-09-11T19:57:22.507Z,3.43
2022-09-11T19:59:51.009Z,2.87
2022-09-11T20:02:19.846Z,3.00
2022-09-11T20:04:48.430Z,2.90
2022-09-11T20:07:16.985Z,3.10
2022-09-11T20:09:45.508Z,3.07
2022-09-11T20:12:15.420Z,3.20
2022-09-11T20:14:43.928Z,3.30
2022-09-11T20:17:13.026Z,3.10
2022-09-11T20:19:44.626Z,2.80
2022-09-11T20:22:13.191Z,2.90
2022-09-11T20:24:41.744Z,3.50
2022-09-11T20:27:10.277Z,3.00
2022-09-11T20:29:41.673Z,2.70
2022-09-11T20:32:12.906Z,2.80
2022-09-11T20:34:41.435Z,3.50
2022-09-11T20:37:10.445Z,3.37
2022-09-11T20:39:39.820Z,3.33
2022-09-11T20:42:09.582Z,3.23
2022-09-11T20:44:39.491Z,2.90
2022-09-11T20:47:10.191Z,3.40
2022-09-11T20:49:38.808Z,3.33
2022-09-11T20:52:07.375Z,3.30
2022-09-11T20:54:35.911Z,3.10
2022-09-11T20:57:04.512Z,3.47
2022-09-11T20:59:33.087Z,3.70
2022-09-11T21:02:03.099Z,3.20
2022-09-11T21:04:31.645Z,3.10
2022-09-11T21:07:00.696Z,3.43
2022-09-11T21:09:29.363Z,4.17
2022-09-11T21:11:57.977Z,3.80
2022-09-11T21:14:26.673Z,3.90
2022-09-11T21:16:55.230Z,3.73
2022-09-11T21:19:25.115Z,3.23
2022-09-11T21:21:53.792Z,3.10
2022-09-11T21:24:22.342Z,3.37
2022-09-11T21:26:50.996Z,3.10
2022-09-11T21:29:19.524Z,2.93
2022-09-11T21:31:48.117Z,2.97
2022-09-11T21:34:16.690Z,3.40
2022-09-11T21:36:46.577Z,3.17
2022-09-11T21:39:15.172Z,3.20
2022-09-11T21:41:43.699Z,3.37
2022-09-11T21:44:12.227Z,3.00
2022-09-11T21:46:40.812Z,3.10
2022-09-11T21:49:10.968Z,2.90
2022-09-11T21:51:40.572Z,3.30
2022-09-11T21:54:10.480Z,3.50
2022-09-11T21:56:39.033Z,3.33
2022-09-11T21:59:07.582Z,3.20
2022-09-11T22:01:36.983Z,3.37
2022-09-11T22:04:05.595Z,3.67
2022-09-11T22:06:34.104Z,4.03
2022-09-11T22:09:02.683Z,3.70
2022-09-11T22:11:32.565Z,3.27
2022-09-11T22:14:01.088Z,3.20
2022-09-11T22:16:29.663Z,3.70
2022-09-11T22:18:58.226Z,3.67
2022-09-11T22:21:26.748Z,3.40
2022-09-11T22:23:57.079Z,3.50
2022-09-11T22:26:25.616Z,3.60
2022-09-11T22:28:56.206Z,3.43
2022-09-11T22:31:25.772Z,3.57
2022-09-11T22:33:54.973Z,3.60
2022-09-11T22:36:24.772Z,4.00
2022-09-11T22:38:53.663Z,3.70
2022-09-11T22:41:22.726Z,3.33
2022-09-11T22:43:51.331Z,3.93
2022-09-11T22:46:21.836Z,3.77
2022-09-11T22:48:50.391Z,3.40
2022-09-11T22:51:18.904Z,4.60
2022-09-11T22:53:47.467Z,4.30
2022-09-11T22:56:16.067Z,3.53
2022-09-11T22:58:44.772Z,3.77
2022-09-11T23:01:19.651Z,3.90
2022-09-11T23:03:51.824Z,3.37
2022-09-11T23:06:34.468Z,3.37
2022-09-11T23:09:04.669Z,3.47
2022-09-11T23:11:33.233Z,3.40
2022-09-11T23:14:01.804Z,3.63
2022-09-11T23:16:31.077Z,4.23
2022-09-11T23:19:02.117Z,4.37
2022-09-11T23:21:31.241Z,4.80
2022-09-11T23:24:00.484Z,4.17
2022-09-11T23:26:29.958Z,3.87
2022-09-11T23:28:58.710Z,3.93
2022-09-11T23:31:28.668Z,4.33
2022-09-11T23:33:58.348Z,4.20
2022-09-11T23:36:28.657Z,4.00
2022-09-11T23:38:57.253Z,4.17
2022-09-11T23:41:26.063Z,4.13
2022-09-11T23:43:54.616Z,4.27
2022-09-11T23:46:23.297Z,3.80
2022-09-11T23:48:51.840Z,4.80
2022-09-11T23:51:21.149Z,5.07
2022-09-11T23:53:51.748Z,4.63
2022-09-11T23:56:20.836Z,4.90
2022-09-11T23:58:49.561Z,4.70
